Latest Weather Observations for Mount Ginini

IDN60901

Issued at 11:31 pm EST Wednesday 4 May 2016 (issued every 10 minutes, with the page automatically refreshed every 10 minutes)

About weather observations | Map of Canberra area stations | Latest observations for Canberra area | Other Formats
Station Details ID: 070349 Name: MOUNT GININI AWS Lat: -35.53 Lon: 148.77 Height: 1760.0 m
Data from the previous 72 hours. | See also: Recent months at Mount Ginini
Date/Time
EST
Tmp

°C
App
Tmp
°C
Dew
Point
°C
Rel
Hum
%
Delta-T

°C
Wind Press
QNH
hPa
Press
MSL
hPa
Rain
since
9 am
mm
Dir
 
Spd
km/h
Gust
km/h
Spd
kts
Gust
kts
04/11:30pm 0.3 -6.3 -0.1 97 0.2 W 24 35 13 19 - - 0.2
04/11:00pm 0.4 -6.1 0.0 97 0.2 W 24 37 13 20 - - 0.2
04/10:30pm 0.4 -5.8 0.0 97 0.2 W 22 32 12 17 - - 0.2
04/10:00pm 0.4 -5.4 0.0 97 0.2 W 20 33 11 18 - - 0.2
04/09:30pm 0.6 -5.2 0.2 97 0.2 W 20 32 11 17 - - 0.2
04/09:00pm 0.5 -5.1 0.1 97 0.2 W 19 28 10 15 - - 0.2
04/08:30pm 0.5 -4.7 0.1 97 0.2 W 17 24 9 13 - - 0.2
04/08:00pm 0.6 -4.2 0.2 97 0.2 W 15 20 8 11 - - 0.2
04/07:30pm 0.8 -4.4 0.2 96 0.2 WSW 17 24 9 13 - - 0.2
04/07:00pm 0.7 -3.7 0.1 96 0.2 WSW 13 19 7 10 - - 0.2
04/06:30pm 1.2 -3.5 0.6 96 0.3 W 15 22 8 12 - - 0.2
04/06:00pm 1.4 -4.1 0.7 95 0.3 W 19 28 10 15 - - 0.2
04/05:30pm 1.9 -2.4 1.0 94 0.4 W 13 24 7 13 - - 0.2
04/05:00pm 3.5 -0.2 2.5 93 0.4 WNW 11 19 6 10 - - 0.2
04/04:30pm 5.3 2.0 2.5 82 1.3 WNW 9 20 5 11 - - 0.2
04/04:00pm 6.3 3.1 3.3 81 1.4 WNW 9 19 5 10 - - 0.2
04/03:30pm 6.0 2.5 3.5 84 1.2 WNW 11 22 6 12 - - 0.2
04/03:00pm 5.7 2.6 3.4 85 1.1 WNW 9 15 5 8 - - 0.2
04/02:30pm 6.7 2.8 3.3 79 1.6 WNW 13 22 7 12 - - 0.2
04/02:00pm 7.1 3.6 3.5 78 1.7 WNW 11 20 6 11 - - 0.2
04/01:30pm 7.3 3.9 3.9 79 1.6 WNW 11 19 6 10 - - 0.2
04/01:00pm 6.9 3.2 2.6 74 2.0 WNW 11 19 6 10 - - 0.2
04/12:30pm 7.4 4.1 2.5 71 2.3 WNW 9 19 5 10 - - 0.2
04/12:00pm 6.6 3.6 2.3 74 2.0 W 7 15 4 8 - - 0.2
04/11:30am 6.4 3.0 1.7 72 2.1 W 9 19 5 10 - - 0.2
04/11:00am 5.5 1.5 2.7 82 1.3 WSW 13 26 7 14 - - 0.2
04/10:30am 4.8 0.6 3.9 94 0.4 WSW 15 28 8 15 - - 0.0
04/10:00am 4.1 0.2 3.5 96 0.3 WSW 13 24 7 13 - - 0.0
04/09:30am 3.5 -0.1 3.1 97 0.2 WSW 11 22 6 12 - - 0.0
04/09:00am 2.5 -2.8 2.1 97 0.2 WSW 19 32 10 17 - - 0.6
04/08:30am 2.1 -3.2 1.7 97 0.2 SW 19 33 10 18 - - 0.6
04/08:00am 1.8 -2.8 1.4 97 0.2 WSW 15 32 8 17 - - 0.6
04/07:30am 2.3 -2.2 1.9 97 0.2 WSW 15 33 8 18 - - 0.6
04/07:00am 2.7 -2.7 2.3 97 0.2 W 20 46 11 25 - - 0.6
04/06:35am 3.1 -3.8 2.7 97 0.2 W 28 48 15 26 - - 0.6
04/06:30am 3.3 -2.4 2.9 97 0.2 W 22 48 12 26 - - 0.6
04/06:00am 3.7 -2.3 3.4 98 0.1 W 24 46 13 25 - - 0.6
04/05:31am 4.3 -2.3 4.0 98 0.1 WSW 28 54 15 29 - - 0.6
04/05:30am 4.4 -1.8 4.1 98 0.1 WSW 26 50 14 27 - - 0.6
04/05:23am 4.4 -2.2 4.1 98 0.1 WSW 28 54 15 29 - - 0.6
04/05:00am 4.8 -1.4 4.5 98 0.1 W 26 57 14 31 - - 0.6
04/04:47am 5.0 -1.5 4.7 98 0.1 W 28 67 15 36 - - 0.6
04/04:30am 5.1 -1.4 4.8 98 0.1 W 28 46 15 25 - - 0.6
04/04:06am 5.2 -1.3 4.9 98 0.1 W 28 54 15 29 - - 0.4
04/04:00am 5.2 -0.5 4.9 98 0.1 W 24 52 13 28 - - 0.4
04/03:30am 5.1 -1.8 4.8 98 0.1 W 30 63 16 34 - - 0.2
04/03:00am 5.0 -1.9 4.6 97 0.2 W 30 59 16 32 - - 0.0
04/02:30am 4.9 -2.0 4.6 98 0.1 W 30 56 16 30 - - 0.0
04/02:00am 4.5 -2.9 4.1 97 0.2 W 32 54 17 29 - - 0.0
04/01:30am 4.4 -3.0 3.8 96 0.3 W 32 56 17 30 - - 0.0
04/01:00am 4.5 -2.5 3.9 96 0.3 W 30 61 16 33 - - 0.0
04/12:30am 4.5 -2.2 3.6 94 0.4 W 28 50 15 27 - - 0.0
04/12:13am 4.4 -2.3 3.5 94 0.4 W 28 54 15 29 - - 0.0
04/12:00am 4.4 -2.0 3.4 93 0.5 W 26 48 14 26 - - 0.0
 
Date/Time
EST
Tmp

°C
App
Tmp
°C
Dew
Point
°C
Rel
Hum
%
Delta-T

°C
Wind Press
QNH
hPa
Press
MSL
hPa
Rain
since
9 am
mm
Dir
 
Spd
km/h
Gust
km/h
Spd
kts
Gust
kts
03/11:30pm 4.5 -2.6 3.5 93 0.5 W 30 56 16 30 - - 0.0
03/11:00pm 4.6 -3.0 2.9 89 0.8 W 32 61 17 33 - - 0.0
03/10:30pm 4.7 -3.1 2.7 87 0.9 W 33 70 18 38 - - 0.0
03/10:00pm 4.6 -2.7 2.6 87 0.9 W 30 56 16 30 - - 0.0
03/09:30pm 4.7 -3.6 2.4 85 1.0 W 35 61 19 33 - - 0.0
03/09:00pm 4.8 -3.5 2.3 84 1.1 W 35 72 19 39 - - 0.0
03/08:30pm 4.7 -3.6 2.2 84 1.1 W 35 63 19 34 - - 0.0
03/08:00pm 4.7 -2.9 2.6 86 1.0 W 32 57 17 31 - - 0.0
03/07:30pm 4.7 -3.0 2.4 85 1.0 W 32 54 17 29 - - 0.0
03/07:00pm 4.6 -2.7 2.5 86 1.0 WNW 30 52 16 28 - - 0.0
03/06:30pm 4.6 -2.7 2.3 85 1.0 WNW 30 54 16 29 - - 0.0
03/06:00pm 4.7 -3.0 2.2 84 1.1 WNW 32 61 17 33 - - 0.0
03/05:30pm 4.6 -3.2 1.6 81 1.3 WNW 32 56 17 30 - - 0.0
03/05:05pm 5.0 -2.1 1.5 78 1.6 WNW 28 65 15 35 - - 0.0
03/05:00pm 5.1 -1.6 1.6 78 1.6 WNW 26 50 14 27 - - 0.0
03/04:30pm 6.2 -0.8 1.7 73 2.0 WNW 28 56 15 30 - - 0.0
03/04:01pm 6.7 -0.3 1.8 71 2.2 WNW 28 50 15 27 - - 0.0
03/04:00pm 6.7 0.1 1.8 71 2.2 WNW 26 50 14 27 - - 0.0
03/03:00pm 5.7 -2.0 3.5 86 1.0 WNW 33 65 18 35 - - 0.0
03/02:30pm 5.4 -3.0 3.7 89 0.8 WNW 37 61 20 33 - - 0.0
03/02:00pm 5.6 -1.7 4.6 93 0.5 WNW 32 56 17 30 - - 0.0
03/01:30pm 5.4 -2.1 3.4 87 0.9 W 32 59 17 32 - - 0.0
03/01:00pm 6.2 -0.4 4.0 86 1.0 W 28 48 15 26 - - 0.0
03/12:30pm 5.0 -1.7 3.8 92 0.6 W 28 52 15 28 - - 0.0
03/12:00pm 5.3 -1.3 4.3 93 0.5 W 28 59 15 32 - - 0.0
03/11:30am 5.3 -1.3 4.4 94 0.4 W 28 56 15 30 - - 0.0
03/11:23am 4.4 -2.3 3.5 94 0.4 W 28 48 15 26 - - 0.0
03/11:00am 3.9 -2.5 3.0 94 0.4 W 26 48 14 26 - - 0.0
03/10:30am 3.9 -2.9 3.2 95 0.3 W 28 50 15 27 - - 0.0
03/10:06am 3.2 -3.7 2.6 96 0.3 W 28 52 15 28 - - 0.0
03/10:00am 3.4 -2.7 2.8 96 0.3 W 24 46 13 25 - - 0.0
03/09:30am 3.0 -3.5 2.6 97 0.2 W 26 44 14 24 - - 0.0
03/09:00am 2.3 -4.3 1.9 97 0.2 W 26 48 14 26 - - 0.0
03/08:30am 1.9 -5.2 1.5 97 0.2 W 28 59 15 32 - - 0.0
03/08:00am 1.8 -6.3 1.2 96 0.3 W 33 56 18 30 - - 0.0
03/07:30am 1.6 -5.6 1.0 96 0.3 W 28 52 15 28 - - 0.0
03/07:00am 1.6 -5.9 0.9 95 0.3 W 30 54 16 29 - - 0.0
03/06:30am 1.6 -5.6 0.9 95 0.3 W 28 48 15 26 - - 0.0
03/06:00am 1.6 -5.6 0.9 95 0.3 W 28 56 15 30 - - 0.0
03/05:30am 1.7 -5.8 1.0 95 0.3 W 30 50 16 27 - - 0.0
03/05:00am 1.6 -5.6 0.9 95 0.3 W 28 50 15 27 - - 0.0
03/04:45am 1.6 -5.6 0.7 94 0.4 W 28 57 15 31 - - 0.0
03/04:30am 1.5 -5.3 0.6 94 0.4 W 26 48 14 26 - - 0.0
03/04:00am 1.4 -6.6 0.5 94 0.4 W 32 61 17 33 - - 0.0
03/03:30am 1.3 -6.3 0.6 95 0.3 W 30 56 16 30 - - 0.0
03/03:14am 1.1 -6.5 0.4 95 0.3 W 30 52 16 28 - - 0.0
03/03:00am 0.9 -6.4 0.0 94 0.4 W 28 44 15 24 - - 0.0
03/02:30am 0.8 -7.4 0.1 95 0.3 W 33 54 18 29 - - 0.0
03/02:00am 0.9 -7.7 0.0 94 0.4 W 35 57 19 31 - - 0.0
03/01:30am 0.9 -6.8 0.0 94 0.4 W 30 54 16 29 - - 0.0
03/01:00am 0.9 -7.2 0.0 94 0.4 W 32 52 17 28 - - 0.0
03/12:32am 0.8 -6.5 -0.1 94 0.4 W 28 50 15 27 - - 0.0
03/12:30am 0.8 -6.1 -0.1 94 0.4 W 26 50 14 27 - - 0.0
03/12:08am 0.8 -6.5 -0.1 94 0.4 W 28 50 15 27 - - 0.0
03/12:00am 0.4 -6.2 -0.5 94 0.4 W 24 43 13 23 - - 0.0
 
Date/Time
EST
Tmp

°C
App
Tmp
°C
Dew
Point
°C
Rel
Hum
%
Delta-T

°C
Wind Press
QNH
hPa
Press
MSL
hPa
Rain
since
9 am
mm
Dir
 
Spd
km/h
Gust
km/h
Spd
kts
Gust
kts
02/11:30pm 0.3 -6.7 -0.5 94 0.3 W 26 41 14 22 - - 0.0
02/11:00pm 0.0 -6.3 -0.8 94 0.3 W 22 39 12 21 - - 0.0
02/10:30pm 0.1 -5.8 -0.7 94 0.3 W 20 35 11 19 - - 0.0
02/10:00pm 0.0 -5.7 -0.8 94 0.3 WSW 19 35 10 19 - - 0.0
02/09:30pm -0.2 -5.9 -1.0 94 0.3 WSW 19 32 10 17 - - 0.0
02/09:00pm -0.2 -6.5 -1.0 94 0.3 WSW 22 43 12 23 - - 0.0
02/08:30pm -0.4 -6.4 -1.2 94 0.3 WSW 20 33 11 18 - - 0.0
02/08:00pm -0.4 -6.3 -1.1 95 0.3 WSW 20 39 11 21 - - 0.0
02/07:30pm -0.2 -6.5 -1.0 94 0.3 WSW 22 37 12 20 - - 0.0
02/07:00pm 0.5 -5.3 -0.4 94 0.4 W 20 33 11 18 - - 0.0
02/06:30pm 0.6 -5.6 -0.3 94 0.4 WSW 22 37 12 20 - - 0.0
02/06:00pm 0.6 -5.0 -0.3 94 0.4 W 19 33 10 18 - - 0.0
02/05:30pm 0.8 -5.8 -0.1 94 0.4 W 24 39 13 21 - - 0.0
02/05:00pm 1.1 -5.0 0.1 93 0.4 WSW 22 44 12 24 - - 0.0
02/04:30pm 1.5 -4.3 0.0 90 0.6 W 20 43 11 23 - - 0.0
02/04:00pm 2.5 -3.0 0.9 89 0.7 W 19 35 10 19 - - 0.0
02/03:30pm 3.9 -0.9 2.6 91 0.6 WNW 17 28 9 15 - - 0.0
02/03:00pm 3.9 -1.7 0.2 77 1.6 W 19 35 10 19 - - 0.0
02/02:30pm 4.6 -0.4 1.6 81 1.3 W 17 33 9 18 - - 0.0
02/02:00pm 4.5 -0.3 2.7 88 0.8 W 17 30 9 16 - - 0.0
02/01:30pm 5.6 0.2 1.3 74 1.9 WNW 19 37 10 20 - - 0.0
02/01:00pm 6.2 1.5 0.9 69 2.3 WNW 15 30 8 16 - - 0.0
02/12:30pm 6.3 1.5 0.2 65 2.7 WNW 15 30 8 16 - - 0.0
02/12:00pm 5.8 1.2 -0.9 62 2.8 WNW 13 24 7 13 - - 0.0
02/11:30am 5.5 1.7 -0.8 64 2.7 WNW 9 22 5 12 - - 0.0
02/11:00am 5.0 1.6 -0.6 67 2.4 W 7 17 4 9 - - 0.0
02/10:30am 3.8 0.4 -2.0 66 2.3 WSW 6 11 3 6 - - 0.0
02/10:00am 2.4 -1.6 -1.9 73 1.7 SW 9 17 5 9 - - 0.0
02/09:30am 1.4 -3.3 -1.7 80 1.2 WSW 13 22 7 12 - - 0.0
02/09:00am 0.3 -4.3 -1.0 91 0.5 SW 13 22 7 12 - - 0.0
02/08:30am -0.4 -5.8 -1.4 93 0.4 SW 17 26 9 14 - - 0.0
02/08:00am -1.1 -6.2 -1.9 94 0.3 SW 15 24 8 13 - - 0.0
02/07:30am -1.8 -7.4 -2.5 95 0.2 SW 17 30 9 16 - - 0.0
02/07:00am -2.0 -8.0 -2.7 95 0.2 SW 19 30 10 16 - - 0.0
02/06:30am -2.0 -8.2 -2.8 94 0.2 SW 20 37 11 20 - - 0.0
02/06:00am -1.9 -7.5 -2.7 94 0.2 SW 17 32 9 17 - - 0.0
02/05:30am -1.5 -7.4 -2.3 94 0.2 WSW 19 37 10 20 - - 0.0
02/05:00am -1.8 -7.9 -2.5 95 0.2 WSW 20 33 11 18 - - 0.0
02/04:30am -1.4 -7.5 -2.1 95 0.2 WSW 20 35 11 19 - - 0.0
02/04:00am -1.5 -7.6 -2.1 96 0.2 WSW 20 41 11 22 - - 0.0
02/03:30am -1.5 -7.5 -1.9 97 0.1 WSW 20 39 11 21 - - 0.0
02/03:00am -1.4 -7.4 -1.8 97 0.1 SW 20 35 11 19 - - 0.0
02/02:30am -1.2 -7.2 -1.6 97 0.1 WSW 20 33 11 18 - - 0.0
02/02:00am -1.0 -7.0 -1.4 97 0.1 SW 20 32 11 17 - - 0.0
02/01:30am -0.4 -5.7 -0.8 97 0.1 WSW 17 33 9 18 - - 0.0
02/01:00am -0.3 -6.2 -0.7 97 0.1 WSW 20 37 11 20 - - 0.0
02/12:30am -0.2 -6.1 -0.8 96 0.2 SW 20 37 11 20 - - 0.0
02/12:00am 0.0 -5.9 -0.6 96 0.2 WSW 20 41 11 22 - - 0.0

Latest Capital City Observations: Canberra | Sydney | Melbourne | Brisbane | Adelaide | Perth | Hobart | Darwin

Other Formats:

Comma delimited format used in spreadsheet applications
http://www.bom.gov.au/fwo/IDN60903/IDN60903.95925.axf

JavaScript Object Notation format (JSON) in row-major order
http://www.bom.gov.au/fwo/IDN60903/IDN60903.95925.json